sensor_id;sensor_type;location;lat;lon;timestamp;P1;durP1;ratioP1;P2;durP2;ratioP2
62584;SDS011;48643;51.670;5.808;2024-02-14T00:00:45;4.95;;;2.38;;
62584;SDS011;48643;51.670;5.808;2024-02-14T00:03:12;4.65;;;2.47;;
62584;SDS011;48643;51.670;5.808;2024-02-14T00:05:39;5.03;;;2.58;;
62584;SDS011;48643;51.670;5.808;2024-02-14T00:08:07;4.72;;;2.50;;
62584;SDS011;48643;51.670;5.808;2024-02-14T00:10:34;5.28;;;2.40;;
62584;SDS011;48643;51.670;5.808;2024-02-14T00:13:01;4.53;;;2.55;;
62584;SDS011;48643;51.670;5.808;2024-02-14T00:15:29;2.95;;;2.20;;
62584;SDS011;48643;51.670;5.808;2024-02-14T00:17:55;3.50;;;2.20;;
62584;SDS011;48643;51.670;5.808;2024-02-14T00:20:22;4.13;;;2.40;;
62584;SDS011;48643;51.670;5.808;2024-02-14T00:22:51;4.57;;;2.45;;
62584;SDS011;48643;51.670;5.808;2024-02-14T00:25:18;6.78;;;2.50;;
62584;SDS011;48643;51.670;5.808;2024-02-14T00:27:46;3.35;;;2.30;;
62584;SDS011;48643;51.670;5.808;2024-02-14T00:30:13;3.42;;;2.40;;
62584;SDS011;48643;51.670;5.808;2024-02-14T00:32:40;4.40;;;2.42;;
62584;SDS011;48643;51.670;5.808;2024-02-14T00:35:07;4.22;;;2.40;;
62584;SDS011;48643;51.670;5.808;2024-02-14T00:37:34;3.33;;;2.30;;
62584;SDS011;48643;51.670;5.808;2024-02-14T00:40:01;3.40;;;2.55;;
62584;SDS011;48643;51.670;5.808;2024-02-14T00:42:29;4.13;;;2.53;;
62584;SDS011;48643;51.670;5.808;2024-02-14T00:44:55;3.33;;;2.22;;
62584;SDS011;48643;51.670;5.808;2024-02-14T00:47:22;5.25;;;2.42;;
62584;SDS011;48643;51.670;5.808;2024-02-14T00:49:49;4.80;;;2.60;;
62584;SDS011;48643;51.670;5.808;2024-02-14T00:52:16;5.13;;;2.42;;
62584;SDS011;48643;51.670;5.808;2024-02-14T00:54:43;4.40;;;2.42;;
62584;SDS011;48643;51.670;5.808;2024-02-14T00:57:10;3.35;;;2.50;;
62584;SDS011;48643;51.670;5.808;2024-02-14T00:59:38;4.10;;;2.40;;
62584;SDS011;48643;51.670;5.808;2024-02-14T01:02:05;5.10;;;2.60;;
62584;SDS011;48643;51.670;5.808;2024-02-14T01:04:32;7.28;;;2.63;;
62584;SDS011;48643;51.670;5.808;2024-02-14T01:07:04;4.95;;;2.60;;
62584;SDS011;48643;51.670;5.808;2024-02-14T01:09:31;4.55;;;2.88;;
62584;SDS011;48643;51.670;5.808;2024-02-14T01:11:58;3.95;;;2.60;;
62584;SDS011;48643;51.670;5.808;2024-02-14T01:14:26;5.65;;;2.67;;
62584;SDS011;48643;51.670;5.808;2024-02-14T01:16:53;4.80;;;2.58;;
62584;SDS011;48643;51.670;5.808;2024-02-14T01:19:20;5.32;;;2.70;;
62584;SDS011;48643;51.670;5.808;2024-02-14T01:21:47;3.80;;;2.70;;
62584;SDS011;48643;51.670;5.808;2024-02-14T01:24:15;5.57;;;3.10;;
62584;SDS011;48643;51.670;5.808;2024-02-14T01:26:42;4.57;;;3.03;;
62584;SDS011;48643;51.670;5.808;2024-02-14T01:29:09;6.30;;;3.00;;
62584;SDS011;48643;51.670;5.808;2024-02-14T01:31:36;5.72;;;3.20;;
62584;SDS011;48643;51.670;5.808;2024-02-14T01:34:03;4.03;;;2.92;;
62584;SDS011;48643;51.670;5.808;2024-02-14T01:36:30;5.97;;;2.83;;
62584;SDS011;48643;51.670;5.808;2024-02-14T01:38:57;4.78;;;2.83;;
62584;SDS011;48643;51.670;5.808;2024-02-14T01:41:24;5.82;;;3.45;;
62584;SDS011;48643;51.670;5.808;2024-02-14T01:43:51;8.20;;;3.10;;
62584;SDS011;48643;51.670;5.808;2024-02-14T01:46:18;6.18;;;3.28;;
62584;SDS011;48643;51.670;5.808;2024-02-14T01:48:45;7.45;;;3.35;;
62584;SDS011;48643;51.670;5.808;2024-02-14T01:51:13;8.73;;;3.30;;
62584;SDS011;48643;51.670;5.808;2024-02-14T01:53:40;5.78;;;2.92;;
62584;SDS011;48643;51.670;5.808;2024-02-14T01:56:07;5.50;;;3.22;;
62584;SDS011;48643;51.670;5.808;2024-02-14T01:58:34;5.78;;;3.33;;
62584;SDS011;48643;51.670;5.808;2024-02-14T02:01:01;6.57;;;3.50;;
62584;SDS011;48643;51.670;5.808;2024-02-14T02:03:30;5.63;;;3.45;;
62584;SDS011;48643;51.670;5.808;2024-02-14T02:06:02;6.00;;;3.50;;
62584;SDS011;48643;51.670;5.808;2024-02-14T02:08:29;5.55;;;3.60;;
62584;SDS011;48643;51.670;5.808;2024-02-14T02:10:56;5.10;;;3.28;;
62584;SDS011;48643;51.670;5.808;2024-02-14T02:13:23;4.95;;;3.03;;
62584;SDS011;48643;51.670;5.808;2024-02-14T02:15:52;4.03;;;2.97;;
62584;SDS011;48643;51.670;5.808;2024-02-14T02:18:19;3.92;;;3.00;;
62584;SDS011;48643;51.670;5.808;2024-02-14T02:20:46;7.30;;;3.40;;
62584;SDS011;48643;51.670;5.808;2024-02-14T02:23:13;6.70;;;3.53;;
62584;SDS011;48643;51.670;5.808;2024-02-14T02:28:10;6.68;;;3.30;;
62584;SDS011;48643;51.670;5.808;2024-02-14T02:30:37;5.53;;;3.40;;
62584;SDS011;48643;51.670;5.808;2024-02-14T02:33:04;4.88;;;3.10;;
62584;SDS011;48643;51.670;5.808;2024-02-14T02:35:33;5.53;;;3.03;;
62584;SDS011;48643;51.670;5.808;2024-02-14T02:38:01;5.70;;;3.35;;
62584;SDS011;48643;51.670;5.808;2024-02-14T02:40:27;6.25;;;3.50;;
62584;SDS011;48643;51.670;5.808;2024-02-14T02:42:54;5.00;;;3.22;;
62584;SDS011;48643;51.670;5.808;2024-02-14T02:45:22;6.13;;;3.30;;
62584;SDS011;48643;51.670;5.808;2024-02-14T02:47:49;6.65;;;3.38;;
62584;SDS011;48643;51.670;5.808;2024-02-14T02:50:19;7.03;;;3.15;;
62584;SDS011;48643;51.670;5.808;2024-02-14T02:55:15;6.20;;;3.10;;
62584;SDS011;48643;51.670;5.808;2024-02-14T02:57:45;8.07;;;3.33;;
62584;SDS011;48643;51.670;5.808;2024-02-14T03:00:12;5.32;;;3.22;;
62584;SDS011;48643;51.670;5.808;2024-02-14T03:02:40;6.57;;;3.28;;
62584;SDS011;48643;51.670;5.808;2024-02-14T03:05:12;4.82;;;3.15;;
62584;SDS011;48643;51.670;5.808;2024-02-14T03:07:45;4.95;;;3.35;;
62584;SDS011;48643;51.670;5.808;2024-02-14T03:10:14;5.65;;;3.25;;
62584;SDS011;48643;51.670;5.808;2024-02-14T03:12:47;7.72;;;3.20;;
62584;SDS011;48643;51.670;5.808;2024-02-14T03:15:15;5.13;;;3.33;;
62584;SDS011;48643;51.670;5.808;2024-02-14T03:17:42;6.20;;;3.10;;
62584;SDS011;48643;51.670;5.808;2024-02-14T03:20:10;4.63;;;3.13;;
62584;SDS011;48643;51.670;5.808;2024-02-14T03:22:43;6.43;;;3.42;;
62584;SDS011;48643;51.670;5.808;2024-02-14T03:25:12;4.82;;;2.92;;
62584;SDS011;48643;51.670;5.808;2024-02-14T03:27:43;6.47;;;3.28;;
62584;SDS011;48643;51.670;5.808;2024-02-14T03:30:15;6.85;;;3.20;;
62584;SDS011;48643;51.670;5.808;2024-02-14T03:32:44;7.40;;;3.42;;
62584;SDS011;48643;51.670;5.808;2024-02-14T03:35:14;5.43;;;3.20;;
62584;SDS011;48643;51.670;5.808;2024-02-14T03:37:42;5.82;;;3.40;;
62584;SDS011;48643;51.670;5.808;2024-02-14T03:40:10;5.35;;;3.13;;
62584;SDS011;48643;51.670;5.808;2024-02-14T03:42:38;5.22;;;3.30;;
62584;SDS011;48643;51.670;5.808;2024-02-14T03:45:08;9.52;;;3.35;;
62584;SDS011;48643;51.670;5.808;2024-02-14T03:47:35;6.28;;;3.45;;
62584;SDS011;48643;51.670;5.808;2024-02-14T03:50:07;9.15;;;3.67;;
62584;SDS011;48643;51.670;5.808;2024-02-14T03:52:34;5.10;;;3.40;;
62584;SDS011;48643;51.670;5.808;2024-02-14T03:55:02;5.05;;;3.40;;
62584;SDS011;48643;51.670;5.808;2024-02-14T03:57:29;6.97;;;3.85;;
62584;SDS011;48643;51.670;5.808;2024-02-14T03:59:57;5.10;;;3.00;;
62584;SDS011;48643;51.670;5.808;2024-02-14T04:02:25;5.65;;;3.20;;
62584;SDS011;48643;51.670;5.808;2024-02-14T04:04:54;6.03;;;3.22;;
62584;SDS011;48643;51.670;5.808;2024-02-14T04:07:21;5.90;;;3.55;;
62584;SDS011;48643;51.670;5.808;2024-02-14T04:09:48;5.80;;;3.25;;
62584;SDS011;48643;51.670;5.808;2024-02-14T04:12:15;7.82;;;3.47;;
62584;SDS011;48643;51.670;5.808;2024-02-14T04:14:42;8.57;;;3.42;;
62584;SDS011;48643;51.670;5.808;2024-02-14T04:17:09;5.00;;;3.28;;
62584;SDS011;48643;51.670;5.808;2024-02-14T04:19:38;6.68;;;3.30;;
62584;SDS011;48643;51.670;5.808;2024-02-14T04:22:05;8.15;;;3.47;;
62584;SDS011;48643;51.670;5.808;2024-02-14T04:24:33;6.50;;;3.63;;
62584;SDS011;48643;51.670;5.808;2024-02-14T04:27:00;5.00;;;3.42;;
62584;SDS011;48643;51.670;5.808;2024-02-14T04:29:31;5.25;;;3.22;;
62584;SDS011;48643;51.670;5.808;2024-02-14T04:32:00;6.97;;;3.40;;
62584;SDS011;48643;51.670;5.808;2024-02-14T04:34:27;5.07;;;3.30;;
62584;SDS011;48643;51.670;5.808;2024-02-14T04:36:54;5.35;;;3.40;;
62584;SDS011;48643;51.670;5.808;2024-02-14T04:39:21;7.18;;;3.30;;
62584;SDS011;48643;51.670;5.808;2024-02-14T04:41:48;6.15;;;3.60;;
62584;SDS011;48643;51.670;5.808;2024-02-14T04:44:27;4.78;;;3.20;;
62584;SDS011;48643;51.670;5.808;2024-02-14T04:46:54;8.38;;;3.70;;
62584;SDS011;48643;51.670;5.808;2024-02-14T04:49:22;6.45;;;3.45;;
62584;SDS011;48643;51.670;5.808;2024-02-14T04:51:50;6.85;;;3.38;;
62584;SDS011;48643;51.670;5.808;2024-02-14T04:54:17;6.07;;;3.45;;
62584;SDS011;48643;51.670;5.808;2024-02-14T04:56:44;4.18;;;3.33;;
62584;SDS011;48643;51.670;5.808;2024-02-14T04:59:20;4.70;;;3.15;;
62584;SDS011;48643;51.670;5.808;2024-02-14T05:01:47;7.82;;;3.42;;
62584;SDS011;48643;51.670;5.808;2024-02-14T05:04:14;7.72;;;3.20;;
62584;SDS011;48643;51.670;5.808;2024-02-14T05:06:43;5.30;;;3.15;;
62584;SDS011;48643;51.670;5.808;2024-02-14T05:09:10;6.93;;;3.50;;
62584;SDS011;48643;51.670;5.808;2024-02-14T05:11:37;5.90;;;3.30;;
62584;SDS011;48643;51.670;5.808;2024-02-14T05:14:04;6.55;;;3.30;;
62584;SDS011;48643;51.670;5.808;2024-02-14T05:16:31;5.07;;;3.40;;
62584;SDS011;48643;51.670;5.808;2024-02-14T05:18:58;6.25;;;3.13;;
62584;SDS011;48643;51.670;5.808;2024-02-14T05:21:25;6.63;;;3.33;;
62584;SDS011;48643;51.670;5.808;2024-02-14T05:23:53;6.43;;;3.30;;
62584;SDS011;48643;51.670;5.808;2024-02-14T05:26:20;6.22;;;3.30;;
62584;SDS011;48643;51.670;5.808;2024-02-14T05:28:47;6.03;;;3.13;;
62584;SDS011;48643;51.670;5.808;2024-02-14T05:31:14;6.35;;;3.30;;
62584;SDS011;48643;51.670;5.808;2024-02-14T05:33:42;4.57;;;3.05;;
62584;SDS011;48643;51.670;5.808;2024-02-14T05:36:09;7.35;;;3.20;;
62584;SDS011;48643;51.670;5.808;2024-02-14T05:38:36;7.32;;;3.50;;
62584;SDS011;48643;51.670;5.808;2024-02-14T05:41:03;6.07;;;3.50;;
62584;SDS011;48643;51.670;5.808;2024-02-14T05:43:30;5.82;;;3.20;;
62584;SDS011;48643;51.670;5.808;2024-02-14T05:45:57;4.60;;;3.15;;
62584;SDS011;48643;51.670;5.808;2024-02-14T05:48:24;5.97;;;3.30;;
62584;SDS011;48643;51.670;5.808;2024-02-14T05:50:52;7.68;;;3.50;;
62584;SDS011;48643;51.670;5.808;2024-02-14T05:53:19;6.85;;;3.22;;
62584;SDS011;48643;51.670;5.808;2024-02-14T05:55:46;5.32;;;3.30;;
62584;SDS011;48643;51.670;5.808;2024-02-14T05:58:13;7.30;;;3.28;;
62584;SDS011;48643;51.670;5.808;2024-02-14T06:00:40;4.95;;;3.00;;
62584;SDS011;48643;51.670;5.808;2024-02-14T06:03:07;4.93;;;3.05;;
62584;SDS011;48643;51.670;5.808;2024-02-14T06:05:34;5.90;;;3.33;;
62584;SDS011;48643;51.670;5.808;2024-02-14T06:08:01;4.45;;;3.10;;
62584;SDS011;48643;51.670;5.808;2024-02-14T06:10:29;5.15;;;3.30;;
62584;SDS011;48643;51.670;5.808;2024-02-14T06:12:56;6.93;;;3.25;;
62584;SDS011;48643;51.670;5.808;2024-02-14T06:15:23;7.70;;;3.35;;
62584;SDS011;48643;51.670;5.808;2024-02-14T06:17:50;6.72;;;3.17;;
62584;SDS011;48643;51.670;5.808;2024-02-14T06:20:17;5.00;;;3.00;;
62584;SDS011;48643;51.670;5.808;2024-02-14T06:22:45;6.70;;;3.20;;
62584;SDS011;48643;51.670;5.808;2024-02-14T06:25:26;5.70;;;3.33;;
62584;SDS011;48643;51.670;5.808;2024-02-14T06:27:53;6.43;;;3.10;;
62584;SDS011;48643;51.670;5.808;2024-02-14T06:32:51;5.55;;;3.17;;
62584;SDS011;48643;51.670;5.808;2024-02-14T06:35:18;4.40;;;3.17;;
62584;SDS011;48643;51.670;5.808;2024-02-14T06:37:47;6.40;;;3.22;;
62584;SDS011;48643;51.670;5.808;2024-02-14T06:40:27;6.90;;;3.30;;
62584;SDS011;48643;51.670;5.808;2024-02-14T06:42:55;4.40;;;3.10;;
62584;SDS011;48643;51.670;5.808;2024-02-14T06:45:23;5.57;;;3.40;;
62584;SDS011;48643;51.670;5.808;2024-02-14T06:47:50;5.00;;;3.30;;
62584;SDS011;48643;51.670;5.808;2024-02-14T06:50:17;6.28;;;3.47;;
62584;SDS011;48643;51.670;5.808;2024-02-14T06:52:44;5.40;;;3.30;;
62584;SDS011;48643;51.670;5.808;2024-02-14T06:55:11;4.20;;;3.22;;
62584;SDS011;48643;51.670;5.808;2024-02-14T06:57:38;8.20;;;3.47;;
62584;SDS011;48643;51.670;5.808;2024-02-14T07:00:05;5.55;;;3.33;;
62584;SDS011;48643;51.670;5.808;2024-02-14T07:02:33;7.25;;;3.50;;
62584;SDS011;48643;51.670;5.808;2024-02-14T07:05:00;7.22;;;3.85;;
62584;SDS011;48643;51.670;5.808;2024-02-14T07:07:28;5.43;;;3.65;;
62584;SDS011;48643;51.670;5.808;2024-02-14T07:09:55;7.18;;;3.60;;
62584;SDS011;48643;51.670;5.808;2024-02-14T07:12:22;9.27;;;3.80;;
62584;SDS011;48643;51.670;5.808;2024-02-14T07:14:49;7.63;;;3.90;;
62584;SDS011;48643;51.670;5.808;2024-02-14T07:17:16;6.68;;;3.70;;
62584;SDS011;48643;51.670;5.808;2024-02-14T07:19:43;5.32;;;3.75;;
62584;SDS011;48643;51.670;5.808;2024-02-14T07:22:14;7.20;;;3.92;;
62584;SDS011;48643;51.670;5.808;2024-02-14T07:24:42;8.23;;;3.70;;
62584;SDS011;48643;51.670;5.808;2024-02-14T07:27:09;5.10;;;3.60;;
62584;SDS011;48643;51.670;5.808;2024-02-14T07:29:37;7.70;;;4.03;;
62584;SDS011;48643;51.670;5.808;2024-02-14T07:32:04;6.90;;;3.72;;
62584;SDS011;48643;51.670;5.808;2024-02-14T07:34:32;6.88;;;3.83;;
62584;SDS011;48643;51.670;5.808;2024-02-14T07:36:59;6.82;;;3.90;;
62584;SDS011;48643;51.670;5.808;2024-02-14T07:39:26;6.25;;;3.83;;
62584;SDS011;48643;51.670;5.808;2024-02-14T07:41:53;7.25;;;4.20;;
62584;SDS011;48643;51.670;5.808;2024-02-14T07:44:20;6.53;;;3.70;;
62584;SDS011;48643;51.670;5.808;2024-02-14T07:46:46;8.07;;;4.10;;
62584;SDS011;48643;51.670;5.808;2024-02-14T07:49:15;6.15;;;4.10;;
62584;SDS011;48643;51.670;5.808;2024-02-14T07:51:43;8.18;;;4.43;;
62584;SDS011;48643;51.670;5.808;2024-02-14T07:54:10;8.82;;;4.10;;
62584;SDS011;48643;51.670;5.808;2024-02-14T07:56:37;9.63;;;3.95;;
62584;SDS011;48643;51.670;5.808;2024-02-14T07:59:04;7.78;;;4.20;;
62584;SDS011;48643;51.670;5.808;2024-02-14T08:01:31;10.15;;;4.15;;
62584;SDS011;48643;51.670;5.808;2024-02-14T08:06:28;7.53;;;4.28;;
62584;SDS011;48643;51.670;5.808;2024-02-14T08:08:55;8.32;;;4.03;;
62584;SDS011;48643;51.670;5.808;2024-02-14T08:11:27;5.65;;;4.15;;
62584;SDS011;48643;51.670;5.808;2024-02-14T08:13:55;8.18;;;4.35;;
62584;SDS011;48643;51.670;5.808;2024-02-14T08:16:22;6.85;;;4.30;;
62584;SDS011;48643;51.670;5.808;2024-02-14T08:18:49;7.05;;;4.18;;
62584;SDS011;48643;51.670;5.808;2024-02-14T08:21:17;10.65;;;4.38;;
62584;SDS011;48643;51.670;5.808;2024-02-14T08:23:44;8.75;;;4.60;;
62584;SDS011;48643;51.670;5.808;2024-02-14T08:26:11;6.80;;;4.25;;
62584;SDS011;48643;51.670;5.808;2024-02-14T08:28:38;7.97;;;4.18;;
62584;SDS011;48643;51.670;5.808;2024-02-14T08:31:14;8.02;;;4.38;;
62584;SDS011;48643;51.670;5.808;2024-02-14T08:33:41;8.60;;;4.40;;
62584;SDS011;48643;51.670;5.808;2024-02-14T08:36:08;10.25;;;4.40;;
62584;SDS011;48643;51.670;5.808;2024-02-14T08:38:35;9.55;;;4.55;;
62584;SDS011;48643;51.670;5.808;2024-02-14T08:41:02;8.13;;;4.57;;
62584;SDS011;48643;51.670;5.808;2024-02-14T08:43:30;7.63;;;4.50;;
62584;SDS011;48643;51.670;5.808;2024-02-14T08:45:57;8.45;;;4.68;;
62584;SDS011;48643;51.670;5.808;2024-02-14T08:48:24;8.55;;;4.22;;
62584;SDS011;48643;51.670;5.808;2024-02-14T08:53:20;6.07;;;4.10;;
62584;SDS011;48643;51.670;5.808;2024-02-14T08:55:48;8.82;;;4.47;;
62584;SDS011;48643;51.670;5.808;2024-02-14T08:58:15;6.88;;;4.60;;
62584;SDS011;48643;51.670;5.808;2024-02-14T09:00:42;8.88;;;4.60;;
62584;SDS011;48643;51.670;5.808;2024-02-14T09:03:08;9.85;;;4.88;;
62584;SDS011;48643;51.670;5.808;2024-02-14T09:05:36;7.28;;;4.35;;
62584;SDS011;48643;51.670;5.808;2024-02-14T09:08:05;9.02;;;4.97;;
62584;SDS011;48643;51.670;5.808;2024-02-14T09:10:32;8.70;;;4.90;;
62584;SDS011;48643;51.670;5.808;2024-02-14T09:12:58;7.28;;;4.15;;
62584;SDS011;48643;51.670;5.808;2024-02-14T09:15:25;8.32;;;4.82;;
62584;SDS011;48643;51.670;5.808;2024-02-14T09:17:52;11.75;;;4.60;;
62584;SDS011;48643;51.670;5.808;2024-02-14T09:20:19;12.27;;;4.85;;
62584;SDS011;48643;51.670;5.808;2024-02-14T09:22:47;9.52;;;4.75;;
62584;SDS011;48643;51.670;5.808;2024-02-14T09:25:13;9.32;;;5.03;;
62584;SDS011;48643;51.670;5.808;2024-02-14T09:27:40;8.57;;;5.00;;
62584;SDS011;48643;51.670;5.808;2024-02-14T09:30:07;11.10;;;4.85;;
62584;SDS011;48643;51.670;5.808;2024-02-14T09:32:46;7.47;;;5.00;;
62584;SDS011;48643;51.670;5.808;2024-02-14T09:35:14;9.88;;;4.90;;
62584;SDS011;48643;51.670;5.808;2024-02-14T09:37:41;8.63;;;5.13;;
62584;SDS011;48643;51.670;5.808;2024-02-14T09:40:08;7.88;;;4.20;;
62584;SDS011;48643;51.670;5.808;2024-02-14T09:42:43;8.75;;;4.38;;
62584;SDS011;48643;51.670;5.808;2024-02-14T09:45:14;8.88;;;4.53;;
62584;SDS011;48643;51.670;5.808;2024-02-14T09:47:47;10.45;;;4.90;;
62584;SDS011;48643;51.670;5.808;2024-02-14T09:50:14;8.77;;;4.57;;
62584;SDS011;48643;51.670;5.808;2024-02-14T09:52:41;10.43;;;4.75;;
62584;SDS011;48643;51.670;5.808;2024-02-14T09:55:09;10.40;;;4.80;;
62584;SDS011;48643;51.670;5.808;2024-02-14T09:57:36;9.27;;;4.90;;
62584;SDS011;48643;51.670;5.808;2024-02-14T10:00:05;8.10;;;4.68;;
62584;SDS011;48643;51.670;5.808;2024-02-14T10:02:33;11.50;;;4.78;;
62584;SDS011;48643;51.670;5.808;2024-02-14T10:05:00;9.27;;;4.80;;
62584;SDS011;48643;51.670;5.808;2024-02-14T10:07:27;8.40;;;4.30;;
62584;SDS011;48643;51.670;5.808;2024-02-14T10:09:54;7.65;;;4.53;;
62584;SDS011;48643;51.670;5.808;2024-02-14T10:12:32;10.25;;;4.57;;
62584;SDS011;48643;51.670;5.808;2024-02-14T10:15:00;9.30;;;4.70;;
62584;SDS011;48643;51.670;5.808;2024-02-14T10:17:28;7.90;;;4.60;;
62584;SDS011;48643;51.670;5.808;2024-02-14T10:19:58;8.30;;;4.45;;
62584;SDS011;48643;51.670;5.808;2024-02-14T10:22:33;8.57;;;4.70;;
62584;SDS011;48643;51.670;5.808;2024-02-14T10:25:02;7.53;;;4.22;;
62584;SDS011;48643;51.670;5.808;2024-02-14T10:27:30;11.77;;;4.60;;
62584;SDS011;48643;51.670;5.808;2024-02-14T10:30:00;9.48;;;4.50;;
62584;SDS011;48643;51.670;5.808;2024-02-14T10:32:27;8.75;;;4.47;;
62584;SDS011;48643;51.670;5.808;2024-02-14T10:34:54;7.97;;;4.30;;
62584;SDS011;48643;51.670;5.808;2024-02-14T10:37:21;10.85;;;4.40;;
62584;SDS011;48643;51.670;5.808;2024-02-14T10:39:47;7.80;;;4.32;;
62584;SDS011;48643;51.670;5.808;2024-02-14T10:42:18;8.57;;;4.25;;
62584;SDS011;48643;51.670;5.808;2024-02-14T10:44:45;11.73;;;4.40;;
62584;SDS011;48643;51.670;5.808;2024-02-14T10:47:17;8.23;;;4.30;;
62584;SDS011;48643;51.670;5.808;2024-02-14T10:49:47;6.47;;;4.10;;
62584;SDS011;48643;51.670;5.808;2024-02-14T10:52:15;8.50;;;3.80;;
62584;SDS011;48643;51.670;5.808;2024-02-14T10:54:43;8.23;;;4.25;;
62584;SDS011;48643;51.670;5.808;2024-02-14T10:57:14;8.85;;;4.18;;
62584;SDS011;48643;51.670;5.808;2024-02-14T10:59:43;7.25;;;4.10;;
62584;SDS011;48643;51.670;5.808;2024-02-14T11:02:11;8.52;;;3.92;;
62584;SDS011;48643;51.670;5.808;2024-02-14T11:04:38;8.55;;;3.95;;
62584;SDS011;48643;51.670;5.808;2024-02-14T11:07:08;7.35;;;4.20;;
62584;SDS011;48643;51.670;5.808;2024-02-14T11:09:36;11.40;;;4.10;;
62584;SDS011;48643;51.670;5.808;2024-02-14T11:12:08;7.28;;;4.00;;
62584;SDS011;48643;51.670;5.808;2024-02-14T11:14:36;7.90;;;4.40;;
62584;SDS011;48643;51.670;5.808;2024-02-14T11:17:09;8.70;;;4.45;;
62584;SDS011;48643;51.670;5.808;2024-02-14T11:19:36;6.85;;;4.40;;
62584;SDS011;48643;51.670;5.808;2024-02-14T11:22:11;7.38;;;4.28;;
62584;SDS011;48643;51.670;5.808;2024-02-14T11:24:48;7.00;;;4.50;;
62584;SDS011;48643;51.670;5.808;2024-02-14T11:27:17;7.32;;;4.40;;
62584;SDS011;48643;51.670;5.808;2024-02-14T11:29:59;9.23;;;4.22;;
62584;SDS011;48643;51.670;5.808;2024-02-14T11:32:27;8.23;;;4.43;;
62584;SDS011;48643;51.670;5.808;2024-02-14T11:34:55;6.95;;;4.00;;
62584;SDS011;48643;51.670;5.808;2024-02-14T11:37:29;7.93;;;4.18;;
62584;SDS011;48643;51.670;5.808;2024-02-14T11:39:57;7.72;;;4.47;;
62584;SDS011;48643;51.670;5.808;2024-02-14T11:42:24;7.93;;;4.20;;
62584;SDS011;48643;51.670;5.808;2024-02-14T11:44:53;7.78;;;4.43;;
62584;SDS011;48643;51.670;5.808;2024-02-14T11:47:22;8.10;;;4.13;;
62584;SDS011;48643;51.670;5.808;2024-02-14T11:49:49;8.05;;;4.68;;
62584;SDS011;48643;51.670;5.808;2024-02-14T11:52:17;7.40;;;4.00;;
62584;SDS011;48643;51.670;5.808;2024-02-14T11:54:48;6.20;;;4.40;;
62584;SDS011;48643;51.670;5.808;2024-02-14T11:57:18;7.53;;;4.20;;
62584;SDS011;48643;51.670;5.808;2024-02-14T11:59:48;8.68;;;4.20;;
62584;SDS011;48643;51.670;5.808;2024-02-14T12:02:19;6.45;;;4.20;;
62584;SDS011;48643;51.670;5.808;2024-02-14T12:04:47;8.30;;;4.32;;
62584;SDS011;48643;51.670;5.808;2024-02-14T12:07:14;7.57;;;4.45;;
62584;SDS011;48643;51.670;5.808;2024-02-14T12:09:41;6.15;;;4.07;;
62584;SDS011;48643;51.670;5.808;2024-02-14T12:12:09;6.82;;;4.07;;
62584;SDS011;48643;51.670;5.808;2024-02-14T12:14:36;6.85;;;4.30;;
62584;SDS011;48643;51.670;5.808;2024-02-14T12:17:03;5.85;;;4.20;;
62584;SDS011;48643;51.670;5.808;2024-02-14T12:19:33;6.93;;;3.70;;
62584;SDS011;48643;51.670;5.808;2024-02-14T12:22:01;6.57;;;3.95;;
62584;SDS011;48643;51.670;5.808;2024-02-14T12:24:29;4.50;;;3.78;;
62584;SDS011;48643;51.670;5.808;2024-02-14T12:26:56;7.32;;;3.40;;
62584;SDS011;48643;51.670;5.808;2024-02-14T12:29:23;5.15;;;3.60;;
62584;SDS011;48643;51.670;5.808;2024-02-14T12:31:51;5.78;;;3.60;;
62584;SDS011;48643;51.670;5.808;2024-02-14T12:34:18;7.75;;;3.80;;
62584;SDS011;48643;51.670;5.808;2024-02-14T12:36:51;5.05;;;3.45;;
62584;SDS011;48643;51.670;5.808;2024-02-14T12:39:17;4.30;;;3.20;;
62584;SDS011;48643;51.670;5.808;2024-02-14T12:41:46;4.57;;;3.60;;
62584;SDS011;48643;51.670;5.808;2024-02-14T12:44:14;5.00;;;3.40;;
62584;SDS011;48643;51.670;5.808;2024-02-14T12:46:40;5.53;;;3.53;;
62584;SDS011;48643;51.670;5.808;2024-02-14T12:49:07;5.10;;;3.70;;
62584;SDS011;48643;51.670;5.808;2024-02-14T12:51:35;5.18;;;3.72;;
62584;SDS011;48643;51.670;5.808;2024-02-14T12:54:05;4.85;;;3.42;;
62584;SDS011;48643;51.670;5.808;2024-02-14T12:56:33;6.32;;;3.60;;
62584;SDS011;48643;51.670;5.808;2024-02-14T12:59:01;5.03;;;3.50;;
62584;SDS011;48643;51.670;5.808;2024-02-14T13:01:28;4.93;;;3.50;;
62584;SDS011;48643;51.670;5.808;2024-02-14T13:03:55;6.10;;;3.40;;
62584;SDS011;48643;51.670;5.808;2024-02-14T13:06:22;4.55;;;3.30;;
62584;SDS011;48643;51.670;5.808;2024-02-14T13:08:50;6.45;;;3.45;;
62584;SDS011;48643;51.670;5.808;2024-02-14T13:11:16;4.10;;;3.25;;
62584;SDS011;48643;51.670;5.808;2024-02-14T13:13:45;4.40;;;3.33;;
62584;SDS011;48643;51.670;5.808;2024-02-14T13:16:12;4.82;;;3.58;;
62584;SDS011;48643;51.670;5.808;2024-02-14T13:18:38;4.30;;;3.40;;
62584;SDS011;48643;51.670;5.808;2024-02-14T13:21:06;4.03;;;3.10;;
62584;SDS011;48643;51.670;5.808;2024-02-14T13:23:33;4.32;;;3.15;;
62584;SDS011;48643;51.670;5.808;2024-02-14T13:26:00;4.03;;;3.10;;
62584;SDS011;48643;51.670;5.808;2024-02-14T13:28:30;3.70;;;3.10;;
62584;SDS011;48643;51.670;5.808;2024-02-14T13:30:56;4.45;;;3.15;;
62584;SDS011;48643;51.670;5.808;2024-02-14T13:33:23;5.20;;;3.15;;
62584;SDS011;48643;51.670;5.808;2024-02-14T13:35:51;3.55;;;3.00;;
62584;SDS011;48643;51.670;5.808;2024-02-14T13:38:18;5.30;;;2.97;;
62584;SDS011;48643;51.670;5.808;2024-02-14T13:40:45;4.80;;;3.00;;
62584;SDS011;48643;51.670;5.808;2024-02-14T13:43:11;4.25;;;2.85;;
62584;SDS011;48643;51.670;5.808;2024-02-14T13:45:44;3.58;;;2.83;;
62584;SDS011;48643;51.670;5.808;2024-02-14T13:48:11;3.80;;;2.90;;
62584;SDS011;48643;51.670;5.808;2024-02-14T13:50:39;6.13;;;2.88;;
62584;SDS011;48643;51.670;5.808;2024-02-14T13:53:07;3.33;;;2.60;;
62584;SDS011;48643;51.670;5.808;2024-02-14T13:55:34;5.15;;;2.92;;
62584;SDS011;48643;51.670;5.808;2024-02-14T13:58:01;4.63;;;2.72;;
62584;SDS011;48643;51.670;5.808;2024-02-14T14:00:28;6.15;;;2.80;;
62584;SDS011;48643;51.670;5.808;2024-02-14T14:02:55;3.47;;;2.72;;
62584;SDS011;48643;51.670;5.808;2024-02-14T14:05:22;4.47;;;2.90;;
62584;SDS011;48643;51.670;5.808;2024-02-14T14:07:49;3.45;;;2.53;;
62584;SDS011;48643;51.670;5.808;2024-02-14T14:10:24;3.88;;;2.80;;
62584;SDS011;48643;51.670;5.808;2024-02-14T14:12:53;3.42;;;2.70;;
62584;SDS011;48643;51.670;5.808;2024-02-14T14:15:21;4.28;;;2.60;;
62584;SDS011;48643;51.670;5.808;2024-02-14T14:17:49;4.35;;;2.58;;
62584;SDS011;48643;51.670;5.808;2024-02-14T14:20:17;4.15;;;2.80;;
62584;SDS011;48643;51.670;5.808;2024-02-14T14:22:47;4.22;;;2.60;;
62584;SDS011;48643;51.670;5.808;2024-02-14T14:25:14;3.40;;;2.63;;
62584;SDS011;48643;51.670;5.808;2024-02-14T14:27:41;3.58;;;2.60;;
62584;SDS011;48643;51.670;5.808;2024-02-14T14:30:09;2.50;;;2.20;;
62584;SDS011;48643;51.670;5.808;2024-02-14T14:32:37;3.70;;;2.70;;
62584;SDS011;48643;51.670;5.808;2024-02-14T14:35:06;3.25;;;2.50;;
62584;SDS011;48643;51.670;5.808;2024-02-14T14:37:33;3.55;;;2.50;;
62584;SDS011;48643;51.670;5.808;2024-02-14T14:40:00;3.10;;;2.53;;
62584;SDS011;48643;51.670;5.808;2024-02-14T14:42:31;6.55;;;2.63;;
62584;SDS011;48643;51.670;5.808;2024-02-14T14:44:58;3.42;;;2.40;;
62584;SDS011;48643;51.670;5.808;2024-02-14T14:47:26;3.72;;;2.40;;
62584;SDS011;48643;51.670;5.808;2024-02-14T14:49:53;2.72;;;2.33;;
62584;SDS011;48643;51.670;5.808;2024-02-14T14:52:20;2.83;;;2.28;;
62584;SDS011;48643;51.670;5.808;2024-02-14T14:54:47;3.05;;;2.38;;
62584;SDS011;48643;51.670;5.808;2024-02-14T14:57:14;3.05;;;2.50;;
62584;SDS011;48643;51.670;5.808;2024-02-14T14:59:41;4.45;;;2.47;;
62584;SDS011;48643;51.670;5.808;2024-02-14T15:02:09;3.85;;;2.50;;
62584;SDS011;48643;51.670;5.808;2024-02-14T15:04:37;3.60;;;2.40;;